createdAt,value
2022-11-27T00:00:43.433Z,5.30
2022-11-27T00:03:10.036Z,5.31
2022-11-27T00:05:36.486Z,5.31
2022-11-27T00:08:02.840Z,5.34
2022-11-27T00:10:29.169Z,5.21
2022-11-27T00:12:55.508Z,5.10
2022-11-27T00:15:22.506Z,5.18
2022-11-27T00:17:48.846Z,5.23
2022-11-27T00:20:15.376Z,5.33
2022-11-27T00:22:41.712Z,5.40
2022-11-27T00:25:08.366Z,5.44
2022-11-27T00:27:34.708Z,5.43
2022-11-27T00:30:01.078Z,5.37
2022-11-27T00:32:27.442Z,5.44
2022-11-27T00:34:54.107Z,5.41
2022-11-27T00:37:20.427Z,5.33
2022-11-27T00:39:47.523Z,5.32
2022-11-27T00:42:13.908Z,5.29
2022-11-27T00:44:40.481Z,5.26
2022-11-27T00:47:07.077Z,5.27
2022-11-27T00:49:33.477Z,5.23
2022-11-27T00:51:59.818Z,5.20
2022-11-27T00:54:26.152Z,5.19
2022-11-27T00:56:52.496Z,5.18
2022-11-27T00:59:18.834Z,5.22
2022-11-27T01:01:46.287Z,5.19
2022-11-27T01:04:14.989Z,5.16
2022-11-27T01:06:42.313Z,5.24
2022-11-27T01:09:10.927Z,5.18
2022-11-27T01:11:37.366Z,5.27
2022-11-27T01:14:09.047Z,5.24
2022-11-27T01:16:38.550Z,5.23
2022-11-27T01:19:07.714Z,5.25
2022-11-27T01:21:34.836Z,5.20
2022-11-27T01:24:02.526Z,5.07
2022-11-27T01:26:29.227Z,4.96
2022-11-27T01:28:56.836Z,4.85
2022-11-27T01:31:26.218Z,4.82
2022-11-27T01:33:58.729Z,4.77
2022-11-27T01:36:25.911Z,4.71
2022-11-27T01:38:52.427Z,4.71
2022-11-27T01:41:18.805Z,4.73
2022-11-27T01:43:48.277Z,4.68
2022-11-27T01:46:39.236Z,4.69
2022-11-27T01:49:08.360Z,4.69
2022-11-27T01:51:41.253Z,4.65
2022-11-27T01:54:09.734Z,4.64
2022-11-27T01:56:36.928Z,4.62
2022-11-27T02:03:16.179Z,4.58
2022-11-27T02:05:42.734Z,4.60
2022-11-27T02:08:12.088Z,4.61
2022-11-27T02:10:49.455Z,4.63
2022-11-27T02:13:33.577Z,4.55
2022-11-27T02:16:29.651Z,4.48
2022-11-27T02:19:13.302Z,4.38
2022-11-27T02:21:54.529Z,4.39
2022-11-27T02:24:48.310Z,4.38
2022-11-27T02:27:36.501Z,4.37
2022-11-27T02:30:05.343Z,4.32
2022-11-27T02:32:40.134Z,4.24
2022-11-27T02:35:32.032Z,4.23
2022-11-27T02:38:10.443Z,4.25
2022-11-27T02:40:52.822Z,4.23
2022-11-27T02:43:24.978Z,4.16
2022-11-27T02:45:52.329Z,4.08
2022-11-27T02:48:22.648Z,4.00
2022-11-27T02:50:51.350Z,3.92
2022-11-27T02:53:30.894Z,3.84
2022-11-27T02:55:59.315Z,3.75
2022-11-27T02:58:29.053Z,3.67
2022-11-27T03:00:57.170Z,3.68
2022-11-27T03:03:29.504Z,3.63
2022-11-27T03:06:01.299Z,3.54
2022-11-27T03:08:41.300Z,3.46
2022-11-27T03:11:10.328Z,3.44
2022-11-27T03:13:39.331Z,3.41
2022-11-27T03:16:37.509Z,3.33
2022-11-27T03:19:22.006Z,3.29
2022-11-27T03:21:58.204Z,3.21
2022-11-27T03:24:25.061Z,3.24
2022-11-27T03:26:51.903Z,3.24
2022-11-27T03:29:35.959Z,3.30
2022-11-27T03:32:02.969Z,3.30
2022-11-27T03:34:29.558Z,3.37
2022-11-27T03:36:56.010Z,3.45
2022-11-27T03:39:23.526Z,3.51
2022-11-27T03:42:22.257Z,3.66
2022-11-27T03:45:19.247Z,3.65
2022-11-27T03:47:57.347Z,3.65
2022-11-27T03:50:29.555Z,3.67
2022-11-27T03:53:17.751Z,3.65
2022-11-27T03:55:53.447Z,3.56
2022-11-27T03:58:37.847Z,3.56
2022-11-27T04:01:09.762Z,3.50
2022-11-27T04:03:36.536Z,3.50
2022-11-27T04:06:03.430Z,3.49
2022-11-27T04:08:29.904Z,3.52
2022-11-27T04:10:56.339Z,3.48
2022-11-27T04:13:22.692Z,3.53
2022-11-27T04:15:49.172Z,3.54
2022-11-27T04:18:15.517Z,3.54
2022-11-27T04:20:41.846Z,3.57
2022-11-27T04:23:08.268Z,3.60
2022-11-27T04:25:34.658Z,3.63
2022-11-27T04:28:01.132Z,3.62
2022-11-27T04:30:27.474Z,3.66
2022-11-27T04:32:53.914Z,3.76
2022-11-27T04:35:20.273Z,3.74
2022-11-27T04:37:46.599Z,3.79
2022-11-27T04:40:13.287Z,3.87
2022-11-27T04:42:39.666Z,3.92
2022-11-27T04:45:06.557Z,3.96
2022-11-27T04:47:32.905Z,3.99
2022-11-27T04:49:59.229Z,3.93
2022-11-27T04:52:25.547Z,4.01
2022-11-27T04:54:55.451Z,4.01
2022-11-27T04:57:26.167Z,4.01
2022-11-27T04:59:52.545Z,4.08
2022-11-27T05:02:18.940Z,4.05
2022-11-27T05:04:45.302Z,4.05
2022-11-27T05:07:11.682Z,4.08
2022-11-27T05:09:38.087Z,4.14
2022-11-27T05:12:04.699Z,4.21
2022-11-27T05:14:31.072Z,4.22
2022-11-27T05:16:58.657Z,4.33
2022-11-27T05:19:27.949Z,4.42
2022-11-27T05:21:54.910Z,4.45
2022-11-27T05:24:24.201Z,4.50
2022-11-27T05:26:50.938Z,4.53
2022-11-27T05:29:18.072Z,4.55
2022-11-27T05:31:44.684Z,4.54
2022-11-27T05:34:11.458Z,4.59
2022-11-27T05:36:38.303Z,4.62
2022-11-27T05:39:06.838Z,4.69
2022-11-27T05:41:34.401Z,4.81
2022-11-27T05:44:00.748Z,4.80
2022-11-27T05:46:27.224Z,4.83
2022-11-27T05:48:53.583Z,4.83
2022-11-27T05:51:19.933Z,4.86
2022-11-27T05:53:46.300Z,4.80
2022-11-27T05:56:15.590Z,4.87
2022-11-27T05:58:43.256Z,4.89
2022-11-27T06:01:11.164Z,4.93
2022-11-27T06:03:39.005Z,4.96
2022-11-27T06:06:14.822Z,5.07
2022-11-27T06:08:41.812Z,5.10
2022-11-27T06:11:10.194Z,5.13
2022-11-27T06:13:37.697Z,5.17
2022-11-27T06:16:10.664Z,5.31
2022-11-27T06:18:37.056Z,5.34
2022-11-27T06:21:08.343Z,5.35
2022-11-27T06:23:35.358Z,5.37
2022-11-27T06:26:13.702Z,5.33
2022-11-27T06:28:40.937Z,5.35
2022-11-27T06:31:17.769Z,5.44
2022-11-27T06:33:44.870Z,5.48
2022-11-27T06:36:11.340Z,5.47
2022-11-27T06:38:38.747Z,5.56
2022-11-27T06:41:11.152Z,5.57
2022-11-27T06:43:37.862Z,5.61
2022-11-27T06:46:06.431Z,5.59
2022-11-27T06:48:33.754Z,5.63
2022-11-27T06:51:05.380Z,5.73
2022-11-27T06:53:34.190Z,5.77
2022-11-27T06:56:03.249Z,5.81
2022-11-27T06:58:31.172Z,5.88
2022-11-27T07:00:59.296Z,5.85
2022-11-27T07:03:26.376Z,5.85
2022-11-27T07:05:52.727Z,5.94
2022-11-27T07:08:19.136Z,5.97
2022-11-27T07:10:45.498Z,5.97
2022-11-27T07:13:11.843Z,6.00
2022-11-27T07:15:38.162Z,6.02
2022-11-27T07:18:04.542Z,6.05
2022-11-27T07:20:31.983Z,6.03
2022-11-27T07:22:58.278Z,6.03
2022-11-27T07:25:24.608Z,6.00
2022-11-27T07:27:50.919Z,6.02
2022-11-27T07:30:17.533Z,6.06
2022-11-27T07:32:43.869Z,6.13
2022-11-27T07:35:10.314Z,6.15
2022-11-27T07:37:36.636Z,6.16
2022-11-27T07:40:03.652Z,6.15
2022-11-27T07:42:39.071Z,6.28
2022-11-27T07:45:08.244Z,6.25
2022-11-27T07:47:34.546Z,6.26
2022-11-27T07:50:01.099Z,6.24
2022-11-27T07:52:27.872Z,6.27
2022-11-27T07:54:54.308Z,6.25
2022-11-27T07:57:20.669Z,6.30
2022-11-27T07:59:47.621Z,6.27
2022-11-27T08:02:14.399Z,6.29
2022-11-27T08:04:40.917Z,6.29
2022-11-27T08:07:07.463Z,6.31
2022-11-27T08:09:33.881Z,6.33
2022-11-27T08:12:00.220Z,6.45
2022-11-27T08:14:26.612Z,6.46
2022-11-27T08:16:53.035Z,6.50
2022-11-27T08:19:19.455Z,6.58
2022-11-27T08:21:45.760Z,6.65
2022-11-27T08:24:12.067Z,6.63
2022-11-27T08:26:39.253Z,6.67
2022-11-27T08:29:06.547Z,6.70
2022-11-27T08:31:34.049Z,6.68
2022-11-27T08:34:00.501Z,6.71
2022-11-27T08:36:27.246Z,6.78
2022-11-27T08:38:54.439Z,6.81
2022-11-27T08:41:21.130Z,6.85
2022-11-27T08:43:47.556Z,6.95
2022-11-27T08:46:14.009Z,7.00
2022-11-27T08:48:41.716Z,7.09
2022-11-27T08:51:11.602Z,7.15
2022-11-27T08:53:38.532Z,7.17
2022-11-27T08:56:11.366Z,7.22
2022-11-27T08:58:38.039Z,7.32
2022-11-27T09:01:09.083Z,7.34
2022-11-27T09:03:35.529Z,7.43
2022-11-27T09:06:02.016Z,7.46
2022-11-27T09:08:28.316Z,7.48
2022-11-27T09:10:54.628Z,7.53
2022-11-27T09:13:20.991Z,7.60
2022-11-27T09:15:47.319Z,7.71
2022-11-27T09:18:13.617Z,7.71
2022-11-27T09:20:39.923Z,7.75
2022-11-27T09:23:10.122Z,7.84
2022-11-27T09:25:39.539Z,7.86
2022-11-27T09:28:05.851Z,7.88
2022-11-27T09:30:32.228Z,7.95
2022-11-27T09:32:58.523Z,7.98
2022-11-27T09:35:24.903Z,8.00
2022-11-27T09:37:51.283Z,8.03
2022-11-27T09:40:17.818Z,8.08
2022-11-27T09:42:52.156Z,8.16
2022-11-27T09:45:18.817Z,8.21
2022-11-27T09:48:13.352Z,8.30
2022-11-27T09:50:50.032Z,8.43
2022-11-27T09:53:33.858Z,8.44
2022-11-27T09:56:06.815Z,8.58
2022-11-27T09:58:42.436Z,8.60
2022-11-27T10:01:13.815Z,8.67
2022-11-27T10:03:43.166Z,8.75
2022-11-27T10:06:28.440Z,8.79
2022-11-27T10:09:15.886Z,8.88
2022-11-27T10:12:05.434Z,9.00
2022-11-27T10:14:49.302Z,9.00
2022-11-27T10:17:27.634Z,9.01
2022-11-27T10:20:23.430Z,9.03
2022-11-27T10:23:08.204Z,9.06
2022-11-27T10:25:40.872Z,9.07
2022-11-27T10:28:29.807Z,9.07
2022-11-27T10:31:02.803Z,9.08
2022-11-27T10:34:04.167Z,9.23
2022-11-27T10:36:44.726Z,9.24
2022-11-27T10:39:34.484Z,9.22
2022-11-27T10:42:10.474Z,9.26
2022-11-27T10:44:52.530Z,9.27
2022-11-27T10:47:22.916Z,9.28
2022-11-27T10:49:49.286Z,9.27
2022-11-27T10:52:18.431Z,9.33
2022-11-27T10:54:50.965Z,9.35
2022-11-27T10:57:47.345Z,9.35
2022-11-27T11:00:24.967Z,9.30
2022-11-27T11:03:03.400Z,9.28
2022-11-27T11:05:41.445Z,9.34
2022-11-27T11:08:19.929Z,9.39
2022-11-27T11:10:51.258Z,9.31
2022-11-27T11:13:21.064Z,9.20
2022-11-27T11:16:14.506Z,9.19
2022-11-27T11:18:52.125Z,9.25
2022-11-27T11:21:32.664Z,9.27
2022-11-27T11:24:12.684Z,9.26
2022-11-27T11:26:43.805Z,9.30
2022-11-27T11:29:31.355Z,9.20
2022-11-27T11:32:03.337Z,9.30
2022-11-27T11:34:31.137Z,9.22
2022-11-27T11:37:01.918Z,9.22
2022-11-27T11:39:35.007Z,9.19
2022-11-27T11:42:09.351Z,9.15
2022-11-27T11:44:38.313Z,9.16
2022-11-27T11:47:05.046Z,9.08
2022-11-27T11:49:35.902Z,9.12
2022-11-27T11:52:26.972Z,9.08
2022-11-27T11:55:19.084Z,9.11
2022-11-27T11:58:13.585Z,9.17
2022-11-27T12:01:18.911Z,9.12
2022-11-27T12:03:54.604Z,9.06
2022-11-27T12:06:28.628Z,9.02
2022-11-27T12:09:04.817Z,9.01
2022-11-27T12:11:40.537Z,8.96
2022-11-27T12:14:22.661Z,8.90
2022-11-27T12:17:26.677Z,8.86
2022-11-27T12:20:05.255Z,8.79
2022-11-27T12:22:40.007Z,8.73
2022-11-27T12:25:33.784Z,8.62
2022-11-27T12:28:18.704Z,8.71
2022-11-27T12:30:59.486Z,8.80
2022-11-27T12:33:28.620Z,8.81
2022-11-27T12:36:23.139Z,8.82
2022-11-27T12:39:09.341Z,8.77
2022-11-27T12:42:00.579Z,8.79
2022-11-27T12:44:31.569Z,8.81
2022-11-27T12:47:02.512Z,8.91
2022-11-27T12:49:34.592Z,8.98
2022-11-27T12:52:09.930Z,8.96
2022-11-27T12:55:02.984Z,8.97
2022-11-27T12:57:41.799Z,8.97
2022-11-27T13:00:15.968Z,9.01
2022-11-27T13:03:00.879Z,9.01
2022-11-27T13:05:32.271Z,9.00
2022-11-27T13:08:04.378Z,8.97
2022-11-27T13:10:38.120Z,8.97
2022-11-27T13:13:05.993Z,8.99
2022-11-27T13:15:43.441Z,8.90
2022-11-27T13:18:18.588Z,9.00
2022-11-27T13:20:51.994Z,8.89
2022-11-27T13:23:20.268Z,8.90
2022-11-27T13:25:51.889Z,9.01
2022-11-27T13:28:40.952Z,8.93
2022-11-27T13:31:09.212Z,8.94
2022-11-27T13:33:41.165Z,8.87
2022-11-27T13:36:19.412Z,8.90
2022-11-27T13:38:51.877Z,8.91
2022-11-27T13:41:31.722Z,8.97
2022-11-27T13:43:58.531Z,9.00
2022-11-27T13:46:27.734Z,8.95
2022-11-27T13:49:00.442Z,8.97
2022-11-27T13:51:32.387Z,8.98
2022-11-27T13:54:15.617Z,8.98
2022-11-27T13:56:42.526Z,8.96
2022-11-27T13:59:17.655Z,8.97
2022-11-27T14:01:55.654Z,9.02
2022-11-27T14:04:22.010Z,9.04
2022-11-27T14:06:58.277Z,9.06
2022-11-27T14:09:51.305Z,9.08
2022-11-27T14:12:32.843Z,9.08
2022-11-27T14:15:03.710Z,9.10
2022-11-27T14:17:44.636Z,9.07
2022-11-27T14:20:11.288Z,9.06
2022-11-27T14:23:07.281Z,9.02
2022-11-27T14:25:33.682Z,9.00
2022-11-27T14:28:10.795Z,9.01
2022-11-27T14:30:46.240Z,9.03
2022-11-27T14:33:22.205Z,9.00
2022-11-27T14:35:57.563Z,8.98
2022-11-27T14:38:24.779Z,8.96
2022-11-27T14:40:55.601Z,8.97
2022-11-27T14:43:28.559Z,8.96
2022-11-27T14:45:58.923Z,8.94
2022-11-27T14:48:41.340Z,8.92
2022-11-27T14:51:13.919Z,8.89
2022-11-27T14:53:40.931Z,8.85
2022-11-27T14:56:07.503Z,8.82
2022-11-27T14:58:34.027Z,8.79
2022-11-27T15:01:05.974Z,8.76
2022-11-27T15:03:33.380Z,8.77
2022-11-27T15:06:02.835Z,8.71
2022-11-27T15:08:34.415Z,8.71
2022-11-27T15:11:02.747Z,8.59
2022-11-27T15:13:31.997Z,8.54
2022-11-27T15:16:15.574Z,8.52
2022-11-27T15:18:48.208Z,8.45
2022-11-27T15:21:20.515Z,8.37
2022-11-27T15:23:49.626Z,8.34
2022-11-27T15:26:33.187Z,8.31
2022-11-27T15:28:59.644Z,8.28
2022-11-27T15:31:37.614Z,8.21
2022-11-27T15:34:20.361Z,8.17
2022-11-27T15:37:03.620Z,8.15
2022-11-27T15:39:38.132Z,8.09
2022-11-27T15:42:09.380Z,8.06
2022-11-27T15:44:36.282Z,8.05
2022-11-27T15:47:04.907Z,8.00
2022-11-27T15:49:31.382Z,8.09
2022-11-27T15:51:58.141Z,8.08
2022-11-27T15:54:25.152Z,8.09
2022-11-27T15:56:52.008Z,8.07
2022-11-27T15:59:20.563Z,8.09
2022-11-27T16:01:47.603Z,8.10
2022-11-27T16:04:14.012Z,8.10
2022-11-27T16:06:40.368Z,8.09
2022-11-27T16:09:06.779Z,8.15
2022-11-27T16:11:34.047Z,8.19
2022-11-27T16:14:00.450Z,8.21
2022-11-27T16:16:26.962Z,8.22
2022-11-27T16:18:57.438Z,8.20
2022-11-27T16:21:29.237Z,8.23
2022-11-27T16:23:58.788Z,8.27
2022-11-27T16:26:26.304Z,8.25
2022-11-27T16:28:52.999Z,8.26
2022-11-27T16:31:20.120Z,8.33
2022-11-27T16:33:46.856Z,8.26
2022-11-27T16:36:16.058Z,8.26
2022-11-27T16:38:43.412Z,8.30
2022-11-27T16:41:15.223Z,8.35
2022-11-27T16:43:45.162Z,8.36
2022-11-27T16:46:13.921Z,8.42
2022-11-27T16:48:43.187Z,8.38
2022-11-27T16:51:14.206Z,8.35
2022-11-27T16:53:42.316Z,8.37
2022-11-27T16:56:10.542Z,8.38
2022-11-27T16:58:39.840Z,8.35
2022-11-27T17:01:15.401Z,8.25
2022-11-27T17:03:41.989Z,8.24
2022-11-27T17:06:10.682Z,8.26
2022-11-27T17:08:37.518Z,8.22
2022-11-27T17:11:15.860Z,8.33
2022-11-27T17:13:42.169Z,8.22
2022-11-27T17:16:08.829Z,8.24
2022-11-27T17:18:39.954Z,8.24
2022-11-27T17:21:14.057Z,8.18
2022-11-27T17:23:43.001Z,8.09
2022-11-27T17:26:11.791Z,8.04
2022-11-27T17:28:38.407Z,8.09
2022-11-27T17:31:13.193Z,8.05
2022-11-27T17:33:39.698Z,8.07
2022-11-27T17:36:06.592Z,8.06
2022-11-27T17:38:33.688Z,8.02
2022-11-27T17:41:11.960Z,7.99
2022-11-27T17:43:39.296Z,8.01
2022-11-27T17:46:11.171Z,7.97
2022-11-27T17:48:38.490Z,7.95
2022-11-27T17:51:06.428Z,7.89
2022-11-27T17:53:33.132Z,7.92
2022-11-27T17:56:07.212Z,7.95
2022-11-27T17:58:33.974Z,7.96
2022-11-27T18:01:02.447Z,7.84
2022-11-27T18:03:29.619Z,7.74
2022-11-27T18:05:56.751Z,7.72
2022-11-27T18:08:23.748Z,7.58
2022-11-27T18:10:50.109Z,7.59
2022-11-27T18:13:17.815Z,7.59
2022-11-27T18:15:44.217Z,7.55
2022-11-27T18:18:10.625Z,7.53
2022-11-27T18:20:37.018Z,7.43
2022-11-27T18:23:03.343Z,7.38
2022-11-27T18:25:29.803Z,7.27
2022-11-27T18:27:57.840Z,7.28
2022-11-27T18:30:24.882Z,7.24
2022-11-27T18:32:51.205Z,7.29
2022-11-27T18:35:17.700Z,7.33
2022-11-27T18:37:44.033Z,7.33
2022-11-27T18:40:10.711Z,7.33
2022-11-27T18:42:37.045Z,7.24
2022-11-27T18:45:03.742Z,7.31
2022-11-27T18:47:30.143Z,7.37
2022-11-27T18:49:59.536Z,7.39
2022-11-27T18:52:25.843Z,7.44
2022-11-27T18:54:52.584Z,7.43
2022-11-27T18:57:19.484Z,7.46
2022-11-27T18:59:45.914Z,7.48
2022-11-27T19:02:13.104Z,7.45
2022-11-27T19:04:39.922Z,7.44
2022-11-27T19:07:06.637Z,7.46
2022-11-27T19:09:33.563Z,7.41
2022-11-27T19:12:00.118Z,7.36
2022-11-27T19:14:26.552Z,7.36
2022-11-27T19:16:53.066Z,7.35
2022-11-27T19:22:07.826Z,7.28
2022-11-27T19:24:34.484Z,7.17
2022-11-27T19:27:00.823Z,7.15
2022-11-27T19:29:27.130Z,7.05
2022-11-27T19:31:55.997Z,7.05
2022-11-27T19:34:22.697Z,7.09
2022-11-27T19:36:49.019Z,7.11
2022-11-27T19:39:15.713Z,7.11
2022-11-27T19:41:44.748Z,7.15
2022-11-27T19:44:12.577Z,7.14
2022-11-27T19:46:40.814Z,7.13
2022-11-27T19:49:12.093Z,7.15
2022-11-27T19:51:40.326Z,7.14
2022-11-27T19:54:15.549Z,7.10
2022-11-27T19:56:42.607Z,7.13
2022-11-27T19:59:10.881Z,7.20
2022-11-27T20:01:40.161Z,7.16
2022-11-27T20:04:07.820Z,7.16
2022-11-27T20:06:34.290Z,7.14
2022-11-27T20:09:03.981Z,7.15
2022-11-27T20:11:35.036Z,7.16
2022-11-27T20:14:04.775Z,7.12
2022-11-27T20:16:33.339Z,7.14
2022-11-27T20:19:02.681Z,7.10
2022-11-27T20:21:29.228Z,7.03
2022-11-27T20:23:57.135Z,6.99
2022-11-27T20:26:25.961Z,7.01
2022-11-27T20:28:53.934Z,6.95
2022-11-27T20:31:24.135Z,6.96
2022-11-27T20:33:56.339Z,7.00
2022-11-27T20:36:24.880Z,7.04
2022-11-27T20:38:52.544Z,7.05
2022-11-27T20:41:20.363Z,7.06
2022-11-27T20:43:50.468Z,7.07
2022-11-27T20:46:17.977Z,7.15
2022-11-27T20:48:49.224Z,7.16
2022-11-27T20:51:21.263Z,7.20
2022-11-27T20:53:49.112Z,7.24
2022-11-27T20:56:18.044Z,7.21
2022-11-27T20:58:46.127Z,7.25
2022-11-27T21:01:29.417Z,7.30
2022-11-27T21:03:57.367Z,7.23
2022-11-27T21:06:27.616Z,7.31
2022-11-27T21:08:54.772Z,7.30
2022-11-27T21:11:27.172Z,7.37
2022-11-27T21:13:59.662Z,7.40
2022-11-27T21:16:31.663Z,7.43
2022-11-27T21:19:01.940Z,7.43
2022-11-27T21:21:29.283Z,7.44
2022-11-27T21:23:55.848Z,7.41
2022-11-27T21:26:23.400Z,7.49
2022-11-27T21:28:50.230Z,7.51
2022-11-27T21:31:20.274Z,7.57
2022-11-27T21:33:54.923Z,7.59
2022-11-27T21:36:25.570Z,7.55
2022-11-27T21:38:52.750Z,7.66
2022-11-27T21:41:19.945Z,7.75
2022-11-27T21:43:48.596Z,7.75
2022-11-27T21:46:18.867Z,7.78
2022-11-27T21:48:47.341Z,7.85
2022-11-27T21:51:15.054Z,7.82
2022-11-27T21:53:42.638Z,7.77
2022-11-27T21:56:11.029Z,7.76
2022-11-27T21:58:37.425Z,7.76
2022-11-27T22:01:06.206Z,7.75
2022-11-27T22:03:32.951Z,7.74
2022-11-27T22:06:01.733Z,7.74
2022-11-27T22:08:29.464Z,7.71
2022-11-27T22:10:55.977Z,7.74
2022-11-27T22:13:23.299Z,7.74
2022-11-27T22:15:49.868Z,7.73
2022-11-27T22:18:17.104Z,7.70
2022-11-27T22:20:43.514Z,7.72
2022-11-27T22:23:09.889Z,7.61
2022-11-27T22:25:36.695Z,7.64
2022-11-27T22:28:03.187Z,7.66
2022-11-27T22:30:29.706Z,7.66
2022-11-27T22:32:56.469Z,7.58
2022-11-27T22:35:23.761Z,7.57
2022-11-27T22:37:53.341Z,7.52
2022-11-27T22:40:20.098Z,7.47
2022-11-27T22:42:46.927Z,7.54
2022-11-27T22:45:13.360Z,7.54
2022-11-27T22:47:40.008Z,7.43
2022-11-27T22:50:07.292Z,7.29
2022-11-27T22:52:33.635Z,7.24
2022-11-27T22:55:00.030Z,7.12
2022-11-27T22:57:26.737Z,7.06
2022-11-27T22:59:53.143Z,7.04
2022-11-27T23:02:19.555Z,6.94
2022-11-27T23:04:46.172Z,6.94
2022-11-27T23:07:12.720Z,6.88
2022-11-27T23:09:39.292Z,6.89
2022-11-27T23:12:05.723Z,6.93
2022-11-27T23:14:32.107Z,6.89
2022-11-27T23:16:58.740Z,6.81
2022-11-27T23:19:25.221Z,6.75
2022-11-27T23:21:51.702Z,6.71
2022-11-27T23:24:18.179Z,6.74
2022-11-27T23:26:45.619Z,6.67
2022-11-27T23:29:12.694Z,6.67
2022-11-27T23:31:39.296Z,6.66
2022-11-27T23:34:09.003Z,6.60
2022-11-27T23:36:36.331Z,6.65
2022-11-27T23:39:07.829Z,6.54
2022-11-27T23:41:35.025Z,6.55
2022-11-27T23:44:02.025Z,6.57
2022-11-27T23:46:29.497Z,6.60
2022-11-27T23:48:57.421Z,6.53
2022-11-27T23:51:26.576Z,6.62
2022-11-27T23:53:53.731Z,6.52
2022-11-27T23:56:23.811Z,6.57
2022-11-27T23:58:50.432Z,6.54
